createdAt,value
2022-11-09T00:01:32.869Z,99439.44
2022-11-09T00:06:30.501Z,99436.09
2022-11-09T00:11:27.001Z,99433.44
2022-11-09T00:16:23.506Z,99434.09
2022-11-09T00:21:21.827Z,99433.44
2022-11-09T00:26:19.970Z,99436.78
2022-11-09T00:31:20.715Z,99433.47
2022-11-09T00:36:19.075Z,99427.13
2022-11-09T00:41:15.458Z,99426.44
2022-11-09T00:46:12.288Z,99429.13
2022-11-09T00:51:09.362Z,99424.81
2022-11-09T00:56:11.928Z,99421.94
2022-11-09T01:01:11.991Z,99428.97
2022-11-09T01:06:13.771Z,99433.66
2022-11-09T01:11:10.464Z,99439.50
2022-11-09T01:16:13.365Z,99446.19
2022-11-09T01:21:11.821Z,99440.19
2022-11-09T01:26:10.213Z,99440.69
2022-11-09T01:31:11.388Z,99422.13
2022-11-09T01:36:10.498Z,99425.63
2022-11-09T01:41:08.056Z,99424.78
2022-11-09T01:46:14.170Z,99429.84
2022-11-09T01:51:16.236Z,99425.81
2022-11-09T01:56:14.735Z,99417.09
2022-11-09T02:01:13.148Z,99414.59
2022-11-09T02:06:13.616Z,99413.09
2022-11-09T02:11:12.521Z,99411.41
2022-11-09T02:16:11.115Z,99404.41
2022-11-09T02:21:07.481Z,99404.56
2022-11-09T02:26:10.059Z,99416.75
2022-11-09T02:31:10.634Z,99416.13
2022-11-09T02:36:07.136Z,99413.78
2022-11-09T02:41:03.884Z,99402.06
2022-11-09T02:46:00.183Z,99399.72
2022-11-09T02:50:56.514Z,99398.38
2022-11-09T02:55:52.878Z,99406.41
2022-11-09T03:00:49.208Z,99394.72
2022-11-09T03:05:45.567Z,99399.72
2022-11-09T03:10:41.889Z,99395.03
2022-11-09T03:15:38.513Z,99407.75
2022-11-09T03:20:34.863Z,99405.56
2022-11-09T03:25:31.335Z,99406.56
2022-11-09T03:30:28.426Z,99407.41
2022-11-09T03:35:24.971Z,99408.41
2022-11-09T03:40:21.653Z,99413.06
2022-11-09T03:45:17.965Z,99411.72
2022-11-09T03:50:16.359Z,99409.84
2022-11-09T03:55:14.319Z,99419.53
2022-11-09T04:00:11.212Z,99427.06
2022-11-09T04:05:08.430Z,99413.19
2022-11-09T04:10:06.489Z,99409.69
2022-11-09T04:15:02.964Z,99413.13
2022-11-09T04:19:59.401Z,99409.28
2022-11-09T04:24:55.726Z,99414.28
2022-11-09T04:29:52.081Z,99419.75
2022-11-09T04:34:48.411Z,99412.63
2022-11-09T04:39:44.790Z,99433.19
2022-11-09T04:44:41.091Z,99430.00
2022-11-09T04:49:37.399Z,99422.31
2022-11-09T04:54:33.896Z,99432.34
2022-11-09T04:59:30.221Z,99433.84
2022-11-09T05:04:26.525Z,99440.00
2022-11-09T05:09:22.838Z,99452.59
2022-11-09T05:14:19.164Z,99443.72
2022-11-09T05:19:15.480Z,99440.00
2022-11-09T05:24:11.834Z,99436.53
2022-11-09T05:29:10.882Z,99434.66
2022-11-09T05:34:07.890Z,99440.31
2022-11-09T05:39:04.214Z,99427.31
2022-11-09T05:44:00.532Z,99425.31
2022-11-09T05:48:56.842Z,99423.59
2022-11-09T05:53:53.157Z,99426.97
2022-11-09T05:58:49.515Z,99434.00
2022-11-09T06:03:46.082Z,99437.84
2022-11-09T06:08:42.493Z,99437.91
2022-11-09T06:13:39.040Z,99440.56
2022-11-09T06:18:35.987Z,99441.41
2022-11-09T06:23:33.292Z,99447.91
2022-11-09T06:28:29.870Z,99449.72
2022-11-09T06:33:26.565Z,99459.56
2022-11-09T06:38:23.099Z,99463.78
2022-11-09T06:43:19.778Z,99465.41
2022-11-09T06:48:16.787Z,99476.09
2022-11-09T06:53:15.464Z,99484.41
2022-11-09T06:58:16.490Z,99497.47
2022-11-09T07:03:17.544Z,99494.81
2022-11-09T07:08:15.288Z,99502.28
2022-11-09T07:13:12.219Z,99513.97
2022-11-09T07:18:11.858Z,99504.13
2022-11-09T07:23:08.307Z,99515.47
2022-11-09T07:28:07.479Z,99506.84
2022-11-09T07:33:11.184Z,99502.88
2022-11-09T07:38:07.860Z,99496.16
2022-11-09T07:43:05.936Z,99504.88
2022-11-09T07:48:05.377Z,99508.88
2022-11-09T07:53:02.318Z,99501.56
2022-11-09T07:58:04.310Z,99510.28
2022-11-09T08:03:01.279Z,99517.66
2022-11-09T08:07:59.839Z,99521.00
2022-11-09T08:12:57.803Z,99524.00
2022-11-09T08:17:54.631Z,99531.22
2022-11-09T08:22:50.993Z,99527.38
2022-11-09T08:27:47.394Z,99535.44
2022-11-09T08:32:44.910Z,99526.09
2022-11-09T08:37:41.234Z,99537.13
2022-11-09T08:42:37.570Z,99542.97
2022-11-09T08:47:34.479Z,99533.75
2022-11-09T08:52:31.568Z,99540.78
2022-11-09T08:57:28.577Z,99541.09
2022-11-09T09:02:25.076Z,99553.28
2022-11-09T09:07:21.462Z,99548.31
2022-11-09T09:12:18.796Z,99572.22
2022-11-09T09:17:15.161Z,99578.84
2022-11-09T09:22:11.477Z,99583.91
2022-11-09T09:27:07.888Z,99588.41
2022-11-09T09:32:04.615Z,99582.31
2022-11-09T09:37:00.933Z,99598.63
2022-11-09T09:42:04.867Z,99595.53
2022-11-09T09:47:13.800Z,99598.88
2022-11-09T09:52:24.178Z,99600.28
2022-11-09T09:57:22.591Z,99606.91
2022-11-09T10:02:31.470Z,99600.72
2022-11-09T10:07:59.211Z,99602.81
2022-11-09T10:13:13.064Z,99600.84
2022-11-09T10:18:34.901Z,99595.81
2022-11-09T10:23:46.474Z,99593.81
2022-11-09T10:29:14.539Z,99599.38
2022-11-09T10:34:14.238Z,99593.50
2022-11-09T10:39:13.789Z,99580.63
2022-11-09T10:44:17.702Z,99586.78
2022-11-09T10:49:21.599Z,99593.31
2022-11-09T10:54:23.756Z,99589.31
2022-11-09T10:59:39.643Z,99592.28
2022-11-09T11:04:36.004Z,99590.94
2022-11-09T11:09:32.374Z,99585.47
2022-11-09T11:14:33.997Z,99577.75
2022-11-09T11:19:33.777Z,99588.56
2022-11-09T11:24:59.282Z,99583.50
2022-11-09T11:30:11.097Z,99587.34
2022-11-09T11:35:17.287Z,99601.56
2022-11-09T11:40:23.767Z,99598.19
2022-11-09T11:45:40.562Z,99601.22
2022-11-09T11:50:50.246Z,99609.59
2022-11-09T11:56:04.790Z,99615.09
2022-11-09T12:01:28.314Z,99602.41
2022-11-09T12:06:54.339Z,99611.59
2022-11-09T12:12:10.257Z,99616.28
2022-11-09T12:17:52.304Z,99607.41
2022-11-09T12:23:17.239Z,99609.25
2022-11-09T12:28:22.822Z,99610.75
2022-11-09T12:33:33.669Z,99610.09
2022-11-09T12:38:50.944Z,99625.81
2022-11-09T12:44:00.502Z,99622.63
2022-11-09T12:49:00.225Z,99612.28
2022-11-09T12:53:58.226Z,99625.97
2022-11-09T12:59:22.417Z,99630.31
2022-11-09T13:04:21.142Z,99623.91
2022-11-09T13:09:24.415Z,99625.59
2022-11-09T13:14:26.068Z,99630.78
2022-11-09T13:19:42.331Z,99633.50
2022-11-09T13:24:59.738Z,99629.00
2022-11-09T13:29:56.905Z,99640.06
2022-11-09T13:34:55.216Z,99639.06
2022-11-09T13:39:51.629Z,99640.56
2022-11-09T13:44:48.350Z,99647.44
2022-11-09T13:49:49.544Z,99652.78
2022-11-09T13:54:46.142Z,99673.16
2022-11-09T13:59:49.774Z,99674.78
2022-11-09T14:04:46.370Z,99669.44
2022-11-09T14:09:49.041Z,99672.59
2022-11-09T14:14:59.453Z,99688.84
2022-11-09T14:20:24.335Z,99678.75
2022-11-09T14:25:23.861Z,99681.72
2022-11-09T14:30:23.013Z,99683.41
2022-11-09T14:35:24.433Z,99678.06
2022-11-09T14:40:32.182Z,99688.63
2022-11-09T14:45:29.025Z,99686.25
2022-11-09T14:50:29.033Z,99688.38
2022-11-09T14:55:26.943Z,99692.97
2022-11-09T15:00:30.886Z,99702.13
2022-11-09T15:05:35.153Z,99710.81
2022-11-09T15:10:32.618Z,99712.25
2022-11-09T15:15:30.931Z,99709.84
2022-11-09T15:20:31.586Z,99717.50
2022-11-09T15:25:35.339Z,99715.97
2022-11-09T15:30:45.491Z,99716.84
2022-11-09T15:35:58.633Z,99716.19
2022-11-09T15:40:55.135Z,99723.16
2022-11-09T15:45:51.548Z,99726.19
2022-11-09T15:50:48.272Z,99735.06
2022-11-09T15:55:44.865Z,99744.06
2022-11-09T16:00:41.932Z,99748.59
2022-11-09T16:05:38.600Z,99750.88
2022-11-09T16:10:37.717Z,99760.22
2022-11-09T16:15:36.256Z,99763.47
2022-11-09T16:20:32.617Z,99776.16
2022-11-09T16:25:29.032Z,99776.78
2022-11-09T16:30:25.469Z,99785.16
2022-11-09T16:35:27.287Z,99788.75
2022-11-09T16:40:24.765Z,99797.13
2022-11-09T16:45:21.485Z,99797.06
2022-11-09T16:50:17.915Z,99815.38
2022-11-09T16:55:14.399Z,99817.75
2022-11-09T17:00:12.243Z,99827.72
2022-11-09T17:05:08.836Z,99838.41
2022-11-09T17:10:05.406Z,99846.28
2022-11-09T17:15:01.732Z,99851.94
2022-11-09T17:19:58.172Z,99859.66
2022-11-09T17:24:54.576Z,99857.16
2022-11-09T17:29:51.286Z,99869.72
2022-11-09T17:34:47.651Z,99874.94
2022-11-09T17:39:43.998Z,99888.69
2022-11-09T17:44:40.345Z,99885.47
2022-11-09T17:49:36.690Z,99898.81
2022-11-09T17:54:36.942Z,99901.75
2022-11-09T17:59:33.911Z,99909.75
2022-11-09T18:04:30.241Z,99909.91
2022-11-09T18:09:40.878Z,99912.28
2022-11-09T18:14:38.346Z,99922.66
2022-11-09T18:19:35.794Z,99921.56
2022-11-09T18:24:33.043Z,99927.13
2022-11-09T18:29:29.420Z,99934.72
2022-11-09T18:34:25.806Z,99942.16
2022-11-09T18:39:22.267Z,99946.81
2022-11-09T18:44:18.620Z,99954.75
2022-11-09T18:49:15.155Z,99959.41
2022-11-09T18:54:11.539Z,99956.28
2022-11-09T18:59:10.873Z,99963.88
2022-11-09T19:04:07.316Z,99967.81
2022-11-09T19:09:22.439Z,99969.59
2022-11-09T19:14:18.855Z,99974.78
2022-11-09T19:19:15.861Z,99993.16
2022-11-09T19:24:13.642Z,99993.88
2022-11-09T19:29:11.585Z,100000.59
2022-11-09T19:34:07.939Z,100007.63
2022-11-09T19:39:04.657Z,100009.88
2022-11-09T19:44:01.260Z,100034.03
2022-11-09T19:48:58.147Z,100039.09
2022-11-09T19:53:56.365Z,100038.84
2022-11-09T19:58:55.319Z,100050.31
2022-11-09T20:03:53.149Z,100055.63
2022-11-09T20:08:51.236Z,100070.38
2022-11-09T20:13:47.767Z,100070.53
2022-11-09T20:18:44.205Z,100088.34
2022-11-09T20:23:40.616Z,100097.03
2022-11-09T20:28:37.491Z,100098.97
2022-11-09T20:33:33.871Z,100120.03
2022-11-09T20:38:30.418Z,100115.69
2022-11-09T20:43:27.078Z,100121.84
2022-11-09T20:48:51.627Z,100130.25
2022-11-09T20:53:39.920Z,100138.38
2022-11-09T20:58:36.287Z,100145.78
2022-11-09T21:03:33.511Z,100145.09
2022-11-09T21:08:30.282Z,100154.19
2022-11-09T21:13:27.027Z,100153.34
2022-11-09T21:18:23.752Z,100154.56
2022-11-09T21:23:20.338Z,100160.72
2022-11-09T21:28:35.559Z,100172.44
2022-11-09T21:33:31.956Z,100169.16
2022-11-09T21:38:28.315Z,100182.59
2022-11-09T21:43:24.738Z,100189.34
2022-11-09T21:48:21.376Z,100193.44
2022-11-09T21:53:18.240Z,100194.69
2022-11-09T21:58:14.824Z,100200.00
2022-11-09T22:03:11.258Z,100192.78
2022-11-09T22:08:07.607Z,100202.81
2022-11-09T22:13:22.861Z,100199.94
2022-11-09T22:18:38.001Z,100213.28
2022-11-09T22:23:34.395Z,100214.78
2022-11-09T22:28:32.259Z,100209.47
2022-11-09T22:33:30.358Z,100227.50
2022-11-09T22:38:27.305Z,100223.75
2022-11-09T22:43:23.931Z,100234.16
2022-11-09T22:48:20.481Z,100234.66
2022-11-09T22:53:16.844Z,100233.72
2022-11-09T22:58:13.185Z,100244.94
2022-11-09T23:03:09.619Z,100263.19
2022-11-09T23:08:06.123Z,100266.31
2022-11-09T23:13:03.247Z,100267.06
2022-11-09T23:18:18.438Z,100278.41
2022-11-09T23:23:14.799Z,100298.13
2022-11-09T23:28:12.815Z,100289.19
2022-11-09T23:33:09.698Z,100297.00
2022-11-09T23:38:06.739Z,100303.81
2022-11-09T23:43:08.210Z,100296.19
2022-11-09T23:48:05.807Z,100314.94
2022-11-09T23:53:02.238Z,100319.06
2022-11-09T23:58:01.164Z,100332.81
